Аэропорт: Кневичи. Владивосток

ICAO: UHWW

METAR:
2020-08-13 10:30:00
UHWW 131030Z 14002MPS 9999 NSC 24/22 Q1006 R25L/0///70 NOSIG RMK QFE753
METAR:
2020-08-13 08:00:00
TAF UHWW 130800Z 1309/1409 18003MPS 9999 SCT030 BECMG 1312/1315 8000 -SHRA BKN016CB TEMPO 1315/1402 14009G14MPS 3100 BR BKN003 OVC011CB FM140400 18003G08MPS 9999 SCT020